Spotsylvania, Virginia
Current Conditions -  °F | °C
As of 9:15 AM on Monday 22 Dec 2014 (Local Time) from KEZF Reporting Station
Light Rain Light Rain  
Wind Chill: 31°   Ceiling: 4000
Heat Index: 35°   Visibility: 7mi
Dew Point: 32°   Wind: 5mph
Humidity: 87%   Direction: 10°N
Pressure: 30.29"   Gusts: NA
Location:  38.2°N, 77.59°W
Report Text: KEZF 221415Z AUTO 01004KT 7SM -RA BKN040 OVC048 02/00 A3029 RMK AO2 T00181002
Loading
Personal Weather Stations






























Interactive Weather Map New forecast layout! Learn more

10-Day Weather Forecast

Advertisements
Track Severe Weather on mobile